sensor_id;sensor_type;location;lat;lon;timestamp;temperature;humidity
50512;DHT22;36446;47.642;-3.018;2022-08-21T00:00:50;16.30;99.90
50512;DHT22;36446;47.642;-3.018;2022-08-21T00:03:16;16.30;99.90
50512;DHT22;36446;47.642;-3.018;2022-08-21T00:05:45;16.20;99.90
50512;DHT22;36446;47.642;-3.018;2022-08-21T00:08:13;16.20;99.90
50512;DHT22;36446;47.642;-3.018;2022-08-21T00:10:40;16.20;99.90
50512;DHT22;36446;47.642;-3.018;2022-08-21T00:13:06;16.10;99.90
50512;DHT22;36446;47.642;-3.018;2022-08-21T00:15:34;16.00;99.90
50512;DHT22;36446;47.642;-3.018;2022-08-21T00:18:00;16.00;99.90
50512;DHT22;36446;47.642;-3.018;2022-08-21T00:20:26;16.00;99.90
50512;DHT22;36446;47.642;-3.018;2022-08-21T00:22:52;15.90;99.90
50512;DHT22;36446;47.642;-3.018;2022-08-21T00:25:19;15.90;99.90
50512;DHT22;36446;47.642;-3.018;2022-08-21T00:27:46;15.90;99.90
50512;DHT22;36446;47.642;-3.018;2022-08-21T00:30:14;15.90;99.90
50512;DHT22;36446;47.642;-3.018;2022-08-21T00:32:41;15.90;99.90
50512;DHT22;36446;47.642;-3.018;2022-08-21T00:35:10;15.90;99.90
50512;DHT22;36446;47.642;-3.018;2022-08-21T00:37:37;15.80;99.90
50512;DHT22;36446;47.642;-3.018;2022-08-21T00:40:05;15.70;99.90
50512;DHT22;36446;47.642;-3.018;2022-08-21T00:42:31;15.70;99.90
50512;DHT22;36446;47.642;-3.018;2022-08-21T00:44:57;15.80;99.90
50512;DHT22;36446;47.642;-3.018;2022-08-21T00:47:23;15.90;99.90
50512;DHT22;36446;47.642;-3.018;2022-08-21T00:49:49;15.80;99.90
50512;DHT22;36446;47.642;-3.018;2022-08-21T00:52:22;15.80;99.90
50512;DHT22;36446;47.642;-3.018;2022-08-21T00:54:49;15.70;99.90
50512;DHT22;36446;47.642;-3.018;2022-08-21T00:57:19;15.60;99.90
50512;DHT22;36446;47.642;-3.018;2022-08-21T00:59:48;15.60;99.90
50512;DHT22;36446;47.642;-3.018;2022-08-21T01:02:15;15.60;99.90
50512;DHT22;36446;47.642;-3.018;2022-08-21T01:04:41;15.50;99.90
50512;DHT22;36446;47.642;-3.018;2022-08-21T01:07:07;15.30;99.90
50512;DHT22;36446;47.642;-3.018;2022-08-21T01:09:33;15.20;99.90
50512;DHT22;36446;47.642;-3.018;2022-08-21T01:11:59;15.30;99.90
50512;DHT22;36446;47.642;-3.018;2022-08-21T01:14:25;15.40;99.90
50512;DHT22;36446;47.642;-3.018;2022-08-21T01:16:52;15.50;99.90
50512;DHT22;36446;47.642;-3.018;2022-08-21T01:19:20;15.60;99.90
50512;DHT22;36446;47.642;-3.018;2022-08-21T01:21:46;15.80;99.90
50512;DHT22;36446;47.642;-3.018;2022-08-21T01:24:12;15.90;99.90
50512;DHT22;36446;47.642;-3.018;2022-08-21T01:26:39;15.90;99.90
50512;DHT22;36446;47.642;-3.018;2022-08-21T01:29:28;15.80;99.90
50512;DHT22;36446;47.642;-3.018;2022-08-21T01:32:02;15.80;99.90
50512;DHT22;36446;47.642;-3.018;2022-08-21T01:34:28;15.90;99.90
50512;DHT22;36446;47.642;-3.018;2022-08-21T01:36:54;15.90;99.90
50512;DHT22;36446;47.642;-3.018;2022-08-21T01:39:20;15.90;99.90
50512;DHT22;36446;47.642;-3.018;2022-08-21T01:41:45;16.00;99.90
50512;DHT22;36446;47.642;-3.018;2022-08-21T01:44:11;15.80;99.90
50512;DHT22;36446;47.642;-3.018;2022-08-21T01:46:37;15.90;99.90
50512;DHT22;36446;47.642;-3.018;2022-08-21T01:49:04;15.90;99.90
50512;DHT22;36446;47.642;-3.018;2022-08-21T01:51:30;15.70;99.90
50512;DHT22;36446;47.642;-3.018;2022-08-21T01:53:55;15.80;99.90
50512;DHT22;36446;47.642;-3.018;2022-08-21T01:56:21;15.80;99.90
50512;DHT22;36446;47.642;-3.018;2022-08-21T01:58:48;15.70;99.90
50512;DHT22;36446;47.642;-3.018;2022-08-21T02:01:14;15.70;99.90
50512;DHT22;36446;47.642;-3.018;2022-08-21T02:03:39;15.60;99.90
50512;DHT22;36446;47.642;-3.018;2022-08-21T02:06:06;15.60;99.90
50512;DHT22;36446;47.642;-3.018;2022-08-21T02:08:32;15.80;99.90
50512;DHT22;36446;47.642;-3.018;2022-08-21T02:10:58;15.80;99.90
50512;DHT22;36446;47.642;-3.018;2022-08-21T02:13:25;15.80;99.90
50512;DHT22;36446;47.642;-3.018;2022-08-21T02:15:51;15.80;99.90
50512;DHT22;36446;47.642;-3.018;2022-08-21T02:18:17;15.80;99.90
50512;DHT22;36446;47.642;-3.018;2022-08-21T02:20:50;15.90;99.90
50512;DHT22;36446;47.642;-3.018;2022-08-21T02:23:16;15.80;99.90
50512;DHT22;36446;47.642;-3.018;2022-08-21T02:25:42;15.80;99.90
50512;DHT22;36446;47.642;-3.018;2022-08-21T02:28:12;15.80;99.90
50512;DHT22;36446;47.642;-3.018;2022-08-21T02:30:44;15.80;99.90
50512;DHT22;36446;47.642;-3.018;2022-08-21T02:33:11;15.80;99.90
50512;DHT22;36446;47.642;-3.018;2022-08-21T02:35:39;16.00;99.90
50512;DHT22;36446;47.642;-3.018;2022-08-21T02:38:10;16.10;99.90
50512;DHT22;36446;47.642;-3.018;2022-08-21T02:40:37;16.20;99.90
50512;DHT22;36446;47.642;-3.018;2022-08-21T02:43:05;16.20;99.90
50512;DHT22;36446;47.642;-3.018;2022-08-21T02:45:32;16.20;99.90
50512;DHT22;36446;47.642;-3.018;2022-08-21T02:48:01;16.20;99.90
50512;DHT22;36446;47.642;-3.018;2022-08-21T02:50:33;16.20;99.90
50512;DHT22;36446;47.642;-3.018;2022-08-21T02:53:00;16.20;99.90
50512;DHT22;36446;47.642;-3.018;2022-08-21T02:55:28;16.20;99.90
50512;DHT22;36446;47.642;-3.018;2022-08-21T02:57:56;16.40;99.90
50512;DHT22;36446;47.642;-3.018;2022-08-21T03:00:24;16.20;99.90
50512;DHT22;36446;47.642;-3.018;2022-08-21T03:02:50;16.20;99.90
50512;DHT22;36446;47.642;-3.018;2022-08-21T03:05:17;16.10;99.90
50512;DHT22;36446;47.642;-3.018;2022-08-21T03:07:43;16.20;99.90
50512;DHT22;36446;47.642;-3.018;2022-08-21T03:10:10;16.20;99.90
50512;DHT22;36446;47.642;-3.018;2022-08-21T03:12:36;16.20;99.90
50512;DHT22;36446;47.642;-3.018;2022-08-21T03:15:05;16.20;99.90
50512;DHT22;36446;47.642;-3.018;2022-08-21T03:17:32;16.20;99.90
50512;DHT22;36446;47.642;-3.018;2022-08-21T03:19:58;16.30;99.90
50512;DHT22;36446;47.642;-3.018;2022-08-21T03:22:23;16.30;99.90
50512;DHT22;36446;47.642;-3.018;2022-08-21T03:24:49;16.40;99.90
50512;DHT22;36446;47.642;-3.018;2022-08-21T03:27:15;16.30;99.90
50512;DHT22;36446;47.642;-3.018;2022-08-21T03:29:40;16.20;99.90
50512;DHT22;36446;47.642;-3.018;2022-08-21T03:32:07;16.20;99.90
50512;DHT22;36446;47.642;-3.018;2022-08-21T03:34:39;16.20;99.90
50512;DHT22;36446;47.642;-3.018;2022-08-21T03:37:06;16.20;99.90
50512;DHT22;36446;47.642;-3.018;2022-08-21T03:39:32;16.20;99.90
50512;DHT22;36446;47.642;-3.018;2022-08-21T03:41:58;16.20;99.90
50512;DHT22;36446;47.642;-3.018;2022-08-21T03:44:25;16.20;99.90
50512;DHT22;36446;47.642;-3.018;2022-08-21T03:46:55;16.30;99.90
50512;DHT22;36446;47.642;-3.018;2022-08-21T03:49:21;16.20;99.90
50512;DHT22;36446;47.642;-3.018;2022-08-21T03:51:47;16.20;99.90
50512;DHT22;36446;47.642;-3.018;2022-08-21T03:54:13;16.30;99.90
50512;DHT22;36446;47.642;-3.018;2022-08-21T03:56:38;16.30;99.90
50512;DHT22;36446;47.642;-3.018;2022-08-21T03:59:05;16.30;99.90
50512;DHT22;36446;47.642;-3.018;2022-08-21T04:01:31;16.30;99.90
50512;DHT22;36446;47.642;-3.018;2022-08-21T04:03:57;16.20;99.90
50512;DHT22;36446;47.642;-3.018;2022-08-21T04:06:22;16.20;99.90
50512;DHT22;36446;47.642;-3.018;2022-08-21T04:08:48;16.20;99.90
50512;DHT22;36446;47.642;-3.018;2022-08-21T04:11:14;16.10;99.90
50512;DHT22;36446;47.642;-3.018;2022-08-21T04:13:40;16.10;99.90
50512;DHT22;36446;47.642;-3.018;2022-08-21T04:16:06;16.00;99.90
50512;DHT22;36446;47.642;-3.018;2022-08-21T04:18:32;15.90;99.90
50512;DHT22;36446;47.642;-3.018;2022-08-21T04:20:59;15.90;99.90
50512;DHT22;36446;47.642;-3.018;2022-08-21T04:23:25;16.00;99.90
50512;DHT22;36446;47.642;-3.018;2022-08-21T04:25:53;16.00;99.90
50512;DHT22;36446;47.642;-3.018;2022-08-21T04:28:20;16.00;99.90
50512;DHT22;36446;47.642;-3.018;2022-08-21T04:30:46;16.20;99.90
50512;DHT22;36446;47.642;-3.018;2022-08-21T04:33:12;16.30;99.90
50512;DHT22;36446;47.642;-3.018;2022-08-21T04:35:37;16.40;99.90
50512;DHT22;36446;47.642;-3.018;2022-08-21T04:38:03;16.40;99.90
50512;DHT22;36446;47.642;-3.018;2022-08-21T04:40:29;16.50;99.90
50512;DHT22;36446;47.642;-3.018;2022-08-21T04:43:02;16.50;99.90
50512;DHT22;36446;47.642;-3.018;2022-08-21T04:45:36;16.50;99.90
50512;DHT22;36446;47.642;-3.018;2022-08-21T04:48:05;16.60;99.90
50512;DHT22;36446;47.642;-3.018;2022-08-21T04:50:53;16.60;99.90
50512;DHT22;36446;47.642;-3.018;2022-08-21T04:53:32;16.50;99.90
50512;DHT22;36446;47.642;-3.018;2022-08-21T04:56:04;16.50;99.90
50512;DHT22;36446;47.642;-3.018;2022-08-21T04:58:30;16.50;99.90
50512;DHT22;36446;47.642;-3.018;2022-08-21T05:01:00;16.50;99.90
50512;DHT22;36446;47.642;-3.018;2022-08-21T05:03:26;16.50;99.90
50512;DHT22;36446;47.642;-3.018;2022-08-21T05:05:52;16.50;99.90
50512;DHT22;36446;47.642;-3.018;2022-08-21T05:08:19;16.40;99.90
50512;DHT22;36446;47.642;-3.018;2022-08-21T05:10:47;16.40;99.90
50512;DHT22;36446;47.642;-3.018;2022-08-21T05:13:13;16.40;99.90
50512;DHT22;36446;47.642;-3.018;2022-08-21T05:15:40;16.40;99.90
50512;DHT22;36446;47.642;-3.018;2022-08-21T05:18:06;16.30;99.90
50512;DHT22;36446;47.642;-3.018;2022-08-21T05:20:32;16.30;99.90
50512;DHT22;36446;47.642;-3.018;2022-08-21T05:23:00;16.20;99.90
50512;DHT22;36446;47.642;-3.018;2022-08-21T05:25:27;16.40;99.90
50512;DHT22;36446;47.642;-3.018;2022-08-21T05:27:53;16.30;99.90
50512;DHT22;36446;47.642;-3.018;2022-08-21T05:30:20;16.30;99.90
50512;DHT22;36446;47.642;-3.018;2022-08-21T05:32:46;16.30;99.90
50512;DHT22;36446;47.642;-3.018;2022-08-21T05:35:12;16.40;99.90
50512;DHT22;36446;47.642;-3.018;2022-08-21T05:37:39;16.40;99.90
50512;DHT22;36446;47.642;-3.018;2022-08-21T05:40:06;16.50;99.90
50512;DHT22;36446;47.642;-3.018;2022-08-21T05:42:33;16.50;99.90
50512;DHT22;36446;47.642;-3.018;2022-08-21T05:44:59;16.60;99.90
50512;DHT22;36446;47.642;-3.018;2022-08-21T05:47:24;16.60;99.90
50512;DHT22;36446;47.642;-3.018;2022-08-21T05:49:50;16.60;99.90
50512;DHT22;36446;47.642;-3.018;2022-08-21T05:52:22;16.60;99.90
50512;DHT22;36446;47.642;-3.018;2022-08-21T05:54:48;16.60;99.90
50512;DHT22;36446;47.642;-3.018;2022-08-21T05:57:13;16.60;99.90
50512;DHT22;36446;47.642;-3.018;2022-08-21T05:59:39;16.60;99.90
50512;DHT22;36446;47.642;-3.018;2022-08-21T06:02:05;16.60;99.90
50512;DHT22;36446;47.642;-3.018;2022-08-21T06:04:37;16.60;99.90
50512;DHT22;36446;47.642;-3.018;2022-08-21T06:07:03;16.70;99.90
50512;DHT22;36446;47.642;-3.018;2022-08-21T06:09:29;16.80;99.90
50512;DHT22;36446;47.642;-3.018;2022-08-21T06:11:54;16.70;99.90
50512;DHT22;36446;47.642;-3.018;2022-08-21T06:14:20;16.80;99.90
50512;DHT22;36446;47.642;-3.018;2022-08-21T06:16:45;16.80;99.90
50512;DHT22;36446;47.642;-3.018;2022-08-21T06:19:12;16.80;99.90
50512;DHT22;36446;47.642;-3.018;2022-08-21T06:21:38;16.90;99.90
50512;DHT22;36446;47.642;-3.018;2022-08-21T06:24:04;17.00;99.90
50512;DHT22;36446;47.642;-3.018;2022-08-21T06:26:30;17.00;99.90
50512;DHT22;36446;47.642;-3.018;2022-08-21T06:28:57;17.10;99.90
50512;DHT22;36446;47.642;-3.018;2022-08-21T06:31:26;17.20;99.90
50512;DHT22;36446;47.642;-3.018;2022-08-21T06:33:52;17.20;99.90
50512;DHT22;36446;47.642;-3.018;2022-08-21T06:36:18;17.30;99.90
50512;DHT22;36446;47.642;-3.018;2022-08-21T06:38:43;17.30;99.90
50512;DHT22;36446;47.642;-3.018;2022-08-21T06:41:10;17.40;99.90
50512;DHT22;36446;47.642;-3.018;2022-08-21T06:43:36;17.40;99.90
50512;DHT22;36446;47.642;-3.018;2022-08-21T06:46:01;17.40;99.90
50512;DHT22;36446;47.642;-3.018;2022-08-21T06:48:27;17.40;99.90
50512;DHT22;36446;47.642;-3.018;2022-08-21T06:50:55;17.40;99.90
50512;DHT22;36446;47.642;-3.018;2022-08-21T06:53:21;17.40;99.90
50512;DHT22;36446;47.642;-3.018;2022-08-21T06:55:48;17.50;99.90
50512;DHT22;36446;47.642;-3.018;2022-08-21T06:58:14;17.50;99.90
50512;DHT22;36446;47.642;-3.018;2022-08-21T07:00:42;17.60;99.90
50512;DHT22;36446;47.642;-3.018;2022-08-21T07:03:17;17.70;99.90
50512;DHT22;36446;47.642;-3.018;2022-08-21T07:05:42;17.70;99.90
50512;DHT22;36446;47.642;-3.018;2022-08-21T07:08:08;17.80;99.90
50512;DHT22;36446;47.642;-3.018;2022-08-21T07:10:34;17.80;99.90
50512;DHT22;36446;47.642;-3.018;2022-08-21T07:12:59;17.90;99.90
50512;DHT22;36446;47.642;-3.018;2022-08-21T07:15:25;18.00;99.90
50512;DHT22;36446;47.642;-3.018;2022-08-21T07:17:51;18.10;99.90
50512;DHT22;36446;47.642;-3.018;2022-08-21T07:20:16;18.10;99.90
50512;DHT22;36446;47.642;-3.018;2022-08-21T07:22:42;18.20;99.90
50512;DHT22;36446;47.642;-3.018;2022-08-21T07:25:09;18.30;99.90
50512;DHT22;36446;47.642;-3.018;2022-08-21T07:27:35;18.30;99.90
50512;DHT22;36446;47.642;-3.018;2022-08-21T07:30:01;18.40;99.90
50512;DHT22;36446;47.642;-3.018;2022-08-21T07:32:27;18.50;99.90
50512;DHT22;36446;47.642;-3.018;2022-08-21T07:34:52;18.60;99.90
50512;DHT22;36446;47.642;-3.018;2022-08-21T07:37:18;18.60;99.90
50512;DHT22;36446;47.642;-3.018;2022-08-21T07:39:43;18.70;99.90
50512;DHT22;36446;47.642;-3.018;2022-08-21T07:42:09;18.70;99.90
50512;DHT22;36446;47.642;-3.018;2022-08-21T07:44:35;18.80;99.90
50512;DHT22;36446;47.642;-3.018;2022-08-21T07:47:01;18.80;99.90
50512;DHT22;36446;47.642;-3.018;2022-08-21T07:49:27;18.90;99.90
50512;DHT22;36446;47.642;-3.018;2022-08-21T07:51:53;18.80;99.90
50512;DHT22;36446;47.642;-3.018;2022-08-21T07:54:19;18.70;99.90
50512;DHT22;36446;47.642;-3.018;2022-08-21T07:56:44;18.70;99.90
50512;DHT22;36446;47.642;-3.018;2022-08-21T07:59:11;18.70;99.90
50512;DHT22;36446;47.642;-3.018;2022-08-21T08:01:36;18.70;99.90
50512;DHT22;36446;47.642;-3.018;2022-08-21T08:04:02;18.80;99.90
50512;DHT22;36446;47.642;-3.018;2022-08-21T08:06:28;18.70;99.90
50512;DHT22;36446;47.642;-3.018;2022-08-21T08:08:54;18.80;99.90
50512;DHT22;36446;47.642;-3.018;2022-08-21T08:11:20;18.80;99.90
50512;DHT22;36446;47.642;-3.018;2022-08-21T08:13:48;18.80;99.90
50512;DHT22;36446;47.642;-3.018;2022-08-21T08:16:15;18.80;99.90
50512;DHT22;36446;47.642;-3.018;2022-08-21T08:18:41;18.90;99.90
50512;DHT22;36446;47.642;-3.018;2022-08-21T08:21:08;19.00;99.90
50512;DHT22;36446;47.642;-3.018;2022-08-21T08:23:34;19.00;99.90
50512;DHT22;36446;47.642;-3.018;2022-08-21T08:26:00;19.00;99.90
50512;DHT22;36446;47.642;-3.018;2022-08-21T08:28:28;19.00;99.90
50512;DHT22;36446;47.642;-3.018;2022-08-21T08:30:54;19.20;99.90
50512;DHT22;36446;47.642;-3.018;2022-08-21T08:33:19;19.30;99.90
50512;DHT22;36446;47.642;-3.018;2022-08-21T08:35:47;19.40;99.90
50512;DHT22;36446;47.642;-3.018;2022-08-21T08:38:13;19.30;99.90
50512;DHT22;36446;47.642;-3.018;2022-08-21T08:43:29;19.30;99.90
50512;DHT22;36446;47.642;-3.018;2022-08-21T08:45:57;19.40;99.90
50512;DHT22;36446;47.642;-3.018;2022-08-21T08:51:12;19.30;99.90
50512;DHT22;36446;47.642;-3.018;2022-08-21T08:53:51;19.30;99.90
50512;DHT22;36446;47.642;-3.018;2022-08-21T08:56:22;19.30;99.90
50512;DHT22;36446;47.642;-3.018;2022-08-21T08:58:50;19.40;99.90
50512;DHT22;36446;47.642;-3.018;2022-08-21T09:01:19;19.40;99.90
50512;DHT22;36446;47.642;-3.018;2022-08-21T09:03:47;19.40;99.90
50512;DHT22;36446;47.642;-3.018;2022-08-21T09:09:03;19.40;99.90
50512;DHT22;36446;47.642;-3.018;2022-08-21T09:14:33;19.50;99.90
50512;DHT22;36446;47.642;-3.018;2022-08-21T09:17:35;19.50;99.90
50512;DHT22;36446;47.642;-3.018;2022-08-21T09:25:26;19.60;99.90
50512;DHT22;36446;47.642;-3.018;2022-08-21T09:27:52;19.60;99.90
50512;DHT22;36446;47.642;-3.018;2022-08-21T09:30:25;19.60;99.90
50512;DHT22;36446;47.642;-3.018;2022-08-21T09:32:51;19.60;99.90
50512;DHT22;36446;47.642;-3.018;2022-08-21T09:35:19;19.70;99.90
50512;DHT22;36446;47.642;-3.018;2022-08-21T09:43:20;19.80;99.90
50512;DHT22;36446;47.642;-3.018;2022-08-21T09:45:47;19.90;99.90
50512;DHT22;36446;47.642;-3.018;2022-08-21T09:48:22;19.90;99.90
50512;DHT22;36446;47.642;-3.018;2022-08-21T09:50:50;19.90;99.90
50512;DHT22;36446;47.642;-3.018;2022-08-21T09:53:29;20.00;99.90
50512;DHT22;36446;47.642;-3.018;2022-08-21T09:56:05;20.00;99.90
50512;DHT22;36446;47.642;-3.018;2022-08-21T09:58:59;20.00;99.90
50512;DHT22;36446;47.642;-3.018;2022-08-21T10:01:26;20.10;99.90
50512;DHT22;36446;47.642;-3.018;2022-08-21T10:04:08;20.10;99.90
50512;DHT22;36446;47.642;-3.018;2022-08-21T10:06:34;20.10;99.90
50512;DHT22;36446;47.642;-3.018;2022-08-21T10:09:15;20.20;99.90
50512;DHT22;36446;47.642;-3.018;2022-08-21T10:11:58;20.40;99.90
50512;DHT22;36446;47.642;-3.018;2022-08-21T10:17:30;20.50;99.90
50512;DHT22;36446;47.642;-3.018;2022-08-21T10:20:13;20.40;99.90
50512;DHT22;36446;47.642;-3.018;2022-08-21T10:28:26;20.40;99.90
50512;DHT22;36446;47.642;-3.018;2022-08-21T10:31:02;20.40;99.90
50512;DHT22;36446;47.642;-3.018;2022-08-21T10:34:00;20.50;99.90
50512;DHT22;36446;47.642;-3.018;2022-08-21T10:36:44;20.60;99.90
50512;DHT22;36446;47.642;-3.018;2022-08-21T10:39:20;20.70;99.90
50512;DHT22;36446;47.642;-3.018;2022-08-21T10:44:52;20.80;99.90
50512;DHT22;36446;47.642;-3.018;2022-08-21T10:47:35;20.80;99.90
50512;DHT22;36446;47.642;-3.018;2022-08-21T10:52:51;20.80;99.90
50512;DHT22;36446;47.642;-3.018;2022-08-21T10:55:22;20.80;99.90
50512;DHT22;36446;47.642;-3.018;2022-08-21T11:03:32;21.00;99.90
50512;DHT22;36446;47.642;-3.018;2022-08-21T11:06:23;21.00;99.90
50512;DHT22;36446;47.642;-3.018;2022-08-21T11:08:51;21.10;99.90
50512;DHT22;36446;47.642;-3.018;2022-08-21T11:11:34;21.10;99.90
50512;DHT22;36446;47.642;-3.018;2022-08-21T11:14:29;21.10;99.90
50512;DHT22;36446;47.642;-3.018;2022-08-21T11:17:43;21.20;99.90
50512;DHT22;36446;47.642;-3.018;2022-08-21T11:19:59;21.20;99.90
50512;DHT22;36446;47.642;-3.018;2022-08-21T11:22:53;21.20;99.90
50512;DHT22;36446;47.642;-3.018;2022-08-21T11:25:32;21.20;99.90
50512;DHT22;36446;47.642;-3.018;2022-08-21T11:28:38;21.20;99.90
50512;DHT22;36446;47.642;-3.018;2022-08-21T11:33:47;21.30;99.90
50512;DHT22;36446;47.642;-3.018;2022-08-21T11:36:32;21.30;99.90
50512;DHT22;36446;47.642;-3.018;2022-08-21T11:39:33;21.40;99.90
50512;DHT22;36446;47.642;-3.018;2022-08-21T11:45:30;21.60;99.90
50512;DHT22;36446;47.642;-3.018;2022-08-21T11:48:16;21.60;99.90
50512;DHT22;36446;47.642;-3.018;2022-08-21T11:50:47;21.70;99.90
50512;DHT22;36446;47.642;-3.018;2022-08-21T11:53:22;21.70;99.90
50512;DHT22;36446;47.642;-3.018;2022-08-21T11:56:00;21.70;99.90
50512;DHT22;36446;47.642;-3.018;2022-08-21T11:58:32;21.70;99.90
50512;DHT22;36446;47.642;-3.018;2022-08-21T12:01:24;21.60;99.90
50512;DHT22;36446;47.642;-3.018;2022-08-21T12:04:28;21.60;99.90
50512;DHT22;36446;47.642;-3.018;2022-08-21T12:06:54;21.60;99.90
50512;DHT22;36446;47.642;-3.018;2022-08-21T12:12:00;21.70;99.90
50512;DHT22;36446;47.642;-3.018;2022-08-21T12:14:46;21.80;99.90
50512;DHT22;36446;47.642;-3.018;2022-08-21T12:17:26;21.80;99.90
50512;DHT22;36446;47.642;-3.018;2022-08-21T12:20:14;21.80;99.90
50512;DHT22;36446;47.642;-3.018;2022-08-21T12:22:41;21.90;99.90
50512;DHT22;36446;47.642;-3.018;2022-08-21T12:25:10;21.90;99.90
50512;DHT22;36446;47.642;-3.018;2022-08-21T12:27:53;21.90;99.90
50512;DHT22;36446;47.642;-3.018;2022-08-21T12:32:59;22.10;99.90
50512;DHT22;36446;47.642;-3.018;2022-08-21T12:35:31;22.30;99.90
50512;DHT22;36446;47.642;-3.018;2022-08-21T12:40:40;22.20;99.90
50512;DHT22;36446;47.642;-3.018;2022-08-21T12:43:15;22.30;99.90
50512;DHT22;36446;47.642;-3.018;2022-08-21T12:45:45;22.20;99.90
50512;DHT22;36446;47.642;-3.018;2022-08-21T12:50:52;22.20;99.90
50512;DHT22;36446;47.642;-3.018;2022-08-21T12:53:48;22.10;99.90
50512;DHT22;36446;47.642;-3.018;2022-08-21T12:56:18;22.10;99.90
50512;DHT22;36446;47.642;-3.018;2022-08-21T12:58:56;22.20;99.90
50512;DHT22;36446;47.642;-3.018;2022-08-21T13:01:46;22.10;99.90
50512;DHT22;36446;47.642;-3.018;2022-08-21T13:04:18;22.10;99.90
50512;DHT22;36446;47.642;-3.018;2022-08-21T13:06:50;22.00;99.90
50512;DHT22;36446;47.642;-3.018;2022-08-21T13:09:20;22.10;99.90
50512;DHT22;36446;47.642;-3.018;2022-08-21T13:11:48;22.10;99.90
50512;DHT22;36446;47.642;-3.018;2022-08-21T13:16:54;22.20;99.50
50512;DHT22;36446;47.642;-3.018;2022-08-21T13:19:21;22.20;99.60
50512;DHT22;36446;47.642;-3.018;2022-08-21T13:21:47;22.30;99.10
50512;DHT22;36446;47.642;-3.018;2022-08-21T13:26:45;22.40;98.90
50512;DHT22;36446;47.642;-3.018;2022-08-21T13:29:14;22.50;99.30
50512;DHT22;36446;47.642;-3.018;2022-08-21T13:31:46;22.60;99.50
50512;DHT22;36446;47.642;-3.018;2022-08-21T13:34:12;22.70;99.30
50512;DHT22;36446;47.642;-3.018;2022-08-21T13:36:42;22.80;99.40
50512;DHT22;36446;47.642;-3.018;2022-08-21T13:39:11;22.80;99.50
50512;DHT22;36446;47.642;-3.018;2022-08-21T13:41:41;22.90;99.60
50512;DHT22;36446;47.642;-3.018;2022-08-21T13:44:24;22.90;99.10
50512;DHT22;36446;47.642;-3.018;2022-08-21T13:46:59;22.90;98.10
50512;DHT22;36446;47.642;-3.018;2022-08-21T13:49:38;23.00;97.50
50512;DHT22;36446;47.642;-3.018;2022-08-21T13:52:05;23.10;97.20
50512;DHT22;36446;47.642;-3.018;2022-08-21T13:54:41;23.00;96.60
50512;DHT22;36446;47.642;-3.018;2022-08-21T13:57:39;23.00;96.60
50512;DHT22;36446;47.642;-3.018;2022-08-21T14:00:13;23.00;95.70
50512;DHT22;36446;47.642;-3.018;2022-08-21T14:02:45;23.10;96.40
50512;DHT22;36446;47.642;-3.018;2022-08-21T14:05:32;23.20;96.40
50512;DHT22;36446;47.642;-3.018;2022-08-21T14:08:08;23.30;97.30
50512;DHT22;36446;47.642;-3.018;2022-08-21T14:10:41;23.40;97.20
50512;DHT22;36446;47.642;-3.018;2022-08-21T14:13:07;23.40;95.60
50512;DHT22;36446;47.642;-3.018;2022-08-21T14:15:37;23.30;95.80
50512;DHT22;36446;47.642;-3.018;2022-08-21T14:18:15;23.30;95.90
50512;DHT22;36446;47.642;-3.018;2022-08-21T14:20:42;23.30;95.60
50512;DHT22;36446;47.642;-3.018;2022-08-21T14:23:08;23.40;96.30
50512;DHT22;36446;47.642;-3.018;2022-08-21T14:25:40;23.30;95.30
50512;DHT22;36446;47.642;-3.018;2022-08-21T14:30:46;23.20;95.00
50512;DHT22;36446;47.642;-3.018;2022-08-21T14:33:16;23.30;95.00
50512;DHT22;36446;47.642;-3.018;2022-08-21T14:35:43;23.20;94.30
50512;DHT22;36446;47.642;-3.018;2022-08-21T14:38:22;23.20;95.10
50512;DHT22;36446;47.642;-3.018;2022-08-21T14:41:12;23.20;95.60
50512;DHT22;36446;47.642;-3.018;2022-08-21T14:43:41;23.30;95.50
50512;DHT22;36446;47.642;-3.018;2022-08-21T14:46:07;23.40;95.30
50512;DHT22;36446;47.642;-3.018;2022-08-21T14:48:33;23.40;93.80
50512;DHT22;36446;47.642;-3.018;2022-08-21T14:50:59;23.30;94.10
50512;DHT22;36446;47.642;-3.018;2022-08-21T14:53:24;23.30;94.10
50512;DHT22;36446;47.642;-3.018;2022-08-21T14:55:50;23.30;94.20
50512;DHT22;36446;47.642;-3.018;2022-08-21T14:58:35;23.10;93.20
50512;DHT22;36446;47.642;-3.018;2022-08-21T15:01:01;23.10;94.30
50512;DHT22;36446;47.642;-3.018;2022-08-21T15:03:30;23.20;94.90
50512;DHT22;36446;47.642;-3.018;2022-08-21T15:05:56;23.20;94.80
50512;DHT22;36446;47.642;-3.018;2022-08-21T15:08:22;23.00;94.60
50512;DHT22;36446;47.642;-3.018;2022-08-21T15:10:48;23.10;95.20
50512;DHT22;36446;47.642;-3.018;2022-08-21T15:13:13;23.10;95.30
50512;DHT22;36446;47.642;-3.018;2022-08-21T15:15:43;23.20;96.10
50512;DHT22;36446;47.642;-3.018;2022-08-21T15:18:09;23.30;96.50
50512;DHT22;36446;47.642;-3.018;2022-08-21T15:20:35;23.30;96.10
50512;DHT22;36446;47.642;-3.018;2022-08-21T15:23:03;23.50;96.80
50512;DHT22;36446;47.642;-3.018;2022-08-21T15:25:29;23.40;95.10
50512;DHT22;36446;47.642;-3.018;2022-08-21T15:27:55;23.30;95.50
50512;DHT22;36446;47.642;-3.018;2022-08-21T15:30:21;23.30;96.20
50512;DHT22;36446;47.642;-3.018;2022-08-21T15:32:47;23.40;95.60
50512;DHT22;36446;47.642;-3.018;2022-08-21T15:35:13;23.50;95.50
50512;DHT22;36446;47.642;-3.018;2022-08-21T15:37:39;23.30;95.00
50512;DHT22;36446;47.642;-3.018;2022-08-21T15:40:06;23.40;95.50
50512;DHT22;36446;47.642;-3.018;2022-08-21T15:42:33;23.40;96.10
50512;DHT22;36446;47.642;-3.018;2022-08-21T15:44:59;23.50;96.60
50512;DHT22;36446;47.642;-3.018;2022-08-21T15:47:29;23.50;96.40
50512;DHT22;36446;47.642;-3.018;2022-08-21T15:49:56;23.40;95.60
50512;DHT22;36446;47.642;-3.018;2022-08-21T15:52:22;23.40;96.40
50512;DHT22;36446;47.642;-3.018;2022-08-21T15:54:48;23.20;96.10
50512;DHT22;36446;47.642;-3.018;2022-08-21T15:57:17;23.30;96.60
50512;DHT22;36446;47.642;-3.018;2022-08-21T15:59:46;23.30;96.90
50512;DHT22;36446;47.642;-3.018;2022-08-21T16:02:27;23.30;96.60
50512;DHT22;36446;47.642;-3.018;2022-08-21T16:04:53;23.40;96.80
50512;DHT22;36446;47.642;-3.018;2022-08-21T16:07:19;23.40;96.70
50512;DHT22;36446;47.642;-3.018;2022-08-21T16:09:45;23.40;96.50
50512;DHT22;36446;47.642;-3.018;2022-08-21T16:12:21;23.30;95.70
50512;DHT22;36446;47.642;-3.018;2022-08-21T16:14:48;23.40;96.50
50512;DHT22;36446;47.642;-3.018;2022-08-21T16:17:15;23.40;96.50
50512;DHT22;36446;47.642;-3.018;2022-08-21T16:19:41;23.50;96.50
50512;DHT22;36446;47.642;-3.018;2022-08-21T16:22:07;23.50;96.40
50512;DHT22;36446;47.642;-3.018;2022-08-21T16:24:33;23.30;96.10
50512;DHT22;36446;47.642;-3.018;2022-08-21T16:27:01;23.20;96.40
50512;DHT22;36446;47.642;-3.018;2022-08-21T16:29:30;23.20;96.60
50512;DHT22;36446;47.642;-3.018;2022-08-21T16:31:57;23.20;96.60
50512;DHT22;36446;47.642;-3.018;2022-08-21T16:34:23;23.10;96.70
50512;DHT22;36446;47.642;-3.018;2022-08-21T16:36:49;23.10;96.90